Terminal Aerodrome Forecast
Issued by NWS

Home | Current Version | Previous Version | Graphics & Text | Print | Product List | Glossary On
Versions: 1 2 3 4 5 6 7 8 9 10 11 12 13 14 15 16 17 18 19
000
FTUS45 KGGW 211120
TAFOLF
TAF
KOLF 211120Z 2112/2212 VRB06KT P6SM SCT200
     FM211700 15007KT P6SM SCT200
     FM220100 19006KT P6SM BKN140
     FM220200 23006KT P6SM BKN140
     FM220400 31005KT P6SM BKN110
     FM220900 01008KT P6SM BKN080=

USA.gov is the U.S. government's official web portal to all federal, state and local government web resources and services.